createdAt,value
2019-04-27T00:02:23.045Z,40.50
2019-04-27T00:05:00.448Z,44.03
2019-04-27T00:07:39.623Z,42.40
2019-04-27T00:10:13.740Z,31.57
2019-04-27T00:12:45.497Z,38.97
2019-04-27T00:15:24.680Z,39.30
2019-04-27T00:17:58.494Z,40.17
2019-04-27T00:20:49.984Z,37.43
2019-04-27T00:23:26.391Z,42.73
2019-04-27T00:25:59.311Z,38.23
2019-04-27T00:28:31.201Z,42.47
2019-04-27T00:31:03.417Z,49.03
2019-04-27T00:33:35.547Z,44.50
2019-04-27T00:36:18.034Z,56.73
2019-04-27T00:38:54.128Z,51.80
2019-04-27T00:41:26.968Z,97.67
2019-04-27T00:43:58.534Z,54.83
2019-04-27T00:46:30.263Z,64.40
2019-04-27T00:49:03.599Z,62.80
2019-04-27T00:51:35.641Z,56.87
2019-04-27T00:54:07.449Z,71.13
2019-04-27T00:56:56.862Z,59.43
2019-04-27T00:59:46.463Z,60.43
2019-04-27T01:02:18.121Z,59.20
2019-04-27T01:04:50.150Z,56.37
2019-04-27T01:07:22.736Z,53.90
2019-04-27T01:09:55.556Z,51.97
2019-04-27T01:12:27.211Z,54.40
2019-04-27T01:14:59.946Z,57.60
2019-04-27T01:17:31.988Z,78.17
2019-04-27T01:20:04.200Z,66.17
2019-04-27T01:22:39.205Z,60.00
2019-04-27T01:25:11.484Z,45.87
2019-04-27T01:28:03.333Z,49.83
2019-04-27T01:30:46.141Z,51.80
2019-04-27T01:33:19.793Z,45.57
2019-04-27T01:35:51.748Z,68.67
2019-04-27T01:38:23.493Z,53.60
2019-04-27T01:40:55.263Z,46.03
2019-04-27T01:43:28.514Z,43.27
2019-04-27T01:46:01.070Z,43.90
2019-04-27T01:48:33.276Z,100.43
2019-04-27T01:51:05.416Z,47.93
2019-04-27T01:53:38.883Z,48.20
2019-04-27T01:56:10.727Z,42.57
2019-04-27T01:58:42.466Z,50.53
2019-04-27T02:01:18.767Z,42.10
2019-04-27T02:03:59.770Z,48.67
2019-04-27T02:06:31.778Z,42.87
2019-04-27T02:09:03.619Z,38.80
2019-04-27T02:11:38.804Z,42.57
2019-04-27T02:14:10.964Z,39.30
2019-04-27T02:16:42.681Z,44.83
2019-04-27T02:19:15.595Z,43.27
2019-04-27T02:21:47.367Z,37.30
2019-04-27T02:24:20.696Z,34.23
2019-04-27T02:26:52.726Z,33.07
2019-04-27T02:29:34.968Z,33.73
2019-04-27T02:32:10.519Z,35.30
2019-04-27T02:34:52.403Z,36.77
2019-04-27T02:37:24.063Z,37.87
2019-04-27T02:39:56.475Z,56.23
2019-04-27T02:42:29.864Z,36.37
2019-04-27T02:45:01.400Z,37.00
2019-04-27T02:47:33.270Z,29.20
2019-04-27T02:50:05.859Z,32.93
2019-04-27T02:52:40.413Z,33.57
2019-04-27T02:55:13.240Z,37.13
2019-04-27T02:57:44.886Z,37.37
2019-04-27T03:00:17.193Z,33.60
2019-04-27T03:02:51.256Z,32.07
2019-04-27T03:05:26.243Z,32.47
2019-04-27T03:07:59.752Z,25.60
2019-04-27T03:10:32.511Z,29.70
2019-04-27T03:13:14.886Z,30.93
2019-04-27T03:16:00.527Z,27.10
2019-04-27T03:18:34.049Z,23.97
2019-04-27T03:21:13.006Z,29.23
2019-04-27T03:23:43.623Z,30.37
2019-04-27T03:26:19.636Z,22.90
2019-04-27T03:28:53.328Z,34.13
2019-04-27T03:31:25.986Z,25.87
2019-04-27T03:34:03.428Z,24.13
2019-04-27T03:36:31.999Z,20.77
2019-04-27T03:39:05.371Z,26.20
2019-04-27T03:41:37.430Z,23.00
2019-04-27T03:44:09.455Z,25.13
2019-04-27T03:46:41.080Z,22.90
2019-04-27T03:49:28.022Z,22.97
2019-04-27T03:51:49.818Z,25.07
2019-04-27T03:54:22.901Z,23.80
2019-04-27T03:56:56.276Z,26.80
2019-04-27T03:59:33.226Z,22.77
2019-04-27T04:02:05.110Z,28.17
2019-04-27T04:04:36.955Z,27.07
2019-04-27T04:07:15.092Z,26.07
2019-04-27T04:09:50.067Z,24.87
2019-04-27T04:12:22.805Z,28.33
2019-04-27T04:14:54.813Z,24.90
2019-04-27T04:17:30.706Z,23.00
2019-04-27T04:20:02.466Z,25.70
2019-04-27T04:22:34.321Z,21.50
2019-04-27T04:25:10.486Z,25.00
2019-04-27T04:27:42.806Z,25.17
2019-04-27T04:30:16.314Z,22.00
2019-04-27T04:32:49.831Z,23.50
2019-04-27T04:35:25.990Z,25.17
2019-04-27T04:38:00.234Z,24.17
2019-04-27T04:40:33.503Z,20.87
2019-04-27T04:43:12.881Z,21.73
2019-04-27T04:46:01.629Z,22.00
2019-04-27T04:48:33.373Z,17.77
2019-04-27T04:51:05.139Z,21.33
2019-04-27T04:53:36.890Z,19.63
2019-04-27T04:56:10.723Z,21.33
2019-04-27T04:58:42.522Z,20.60
2019-04-27T05:01:14.256Z,21.17
2019-04-27T05:03:46.002Z,22.30
2019-04-27T05:06:18.966Z,17.53
2019-04-27T05:08:51.922Z,18.07
2019-04-27T05:11:23.752Z,20.33
2019-04-27T05:13:55.515Z,21.63
2019-04-27T05:16:28.625Z,16.30
2019-04-27T05:19:00.884Z,18.37
2019-04-27T05:21:34.056Z,18.70
2019-04-27T05:24:06.436Z,22.83
2019-04-27T05:26:39.740Z,15.30
2019-04-27T05:29:11.962Z,16.93
2019-04-27T05:31:43.714Z,16.33
2019-04-27T05:34:15.451Z,17.17
2019-04-27T05:36:48.797Z,22.50
2019-04-27T05:39:25.161Z,13.47
2019-04-27T05:41:54.074Z,18.87
2019-04-27T05:44:30.313Z,13.10
2019-04-27T05:47:15.715Z,17.37
2019-04-27T05:49:48.555Z,10.53
2019-04-27T05:52:29.969Z,9.47
2019-04-27T05:55:02.969Z,11.73
2019-04-27T05:57:34.704Z,9.90
2019-04-27T06:00:09.665Z,11.93
2019-04-27T06:02:41.202Z,27.63
2019-04-27T06:05:13.386Z,9.03
2019-04-27T06:07:48.752Z,10.97
2019-04-27T06:10:24.102Z,12.77
2019-04-27T06:12:55.717Z,16.47
2019-04-27T06:15:28.405Z,16.40
2019-04-27T06:18:00.786Z,11.17
2019-04-27T06:20:32.529Z,24.60
2019-04-27T06:23:05.230Z,11.30
2019-04-27T06:25:39.224Z,12.03
2019-04-27T06:28:12.204Z,11.47
2019-04-27T06:30:43.935Z,12.10
2019-04-27T06:33:29.311Z,12.47
2019-04-27T06:35:49.529Z,17.97
2019-04-27T06:38:22.838Z,15.53
2019-04-27T06:40:54.575Z,10.07
2019-04-27T06:43:29.286Z,11.50
2019-04-27T06:46:01.201Z,13.50
2019-04-27T06:48:32.932Z,13.20
2019-04-27T06:51:05.657Z,11.90
2019-04-27T06:53:39.445Z,11.27
2019-04-27T06:56:11.330Z,12.77
2019-04-27T06:58:43.071Z,11.63
2019-04-27T07:01:14.843Z,15.77
2019-04-27T07:03:46.568Z,21.77
2019-04-27T07:06:18.985Z,11.93
2019-04-27T07:08:50.725Z,9.37
2019-04-27T07:11:22.735Z,11.43
2019-04-27T07:13:54.512Z,12.30
2019-04-27T07:16:26.675Z,11.63
2019-04-27T07:18:59.376Z,10.33
2019-04-27T07:21:31.753Z,13.10
2019-04-27T07:24:03.457Z,25.67
2019-04-27T07:26:35.532Z,18.80
2019-04-27T07:29:09.643Z,12.47
2019-04-27T07:31:41.993Z,19.43
2019-04-27T07:34:14.062Z,14.67
2019-04-27T07:36:45.960Z,18.60
2019-04-27T07:39:19.257Z,12.57
2019-04-27T07:41:51.246Z,21.37
2019-04-27T07:44:31.413Z,12.60
2019-04-27T07:47:16.647Z,19.63
2019-04-27T07:49:49.662Z,15.50
2019-04-27T07:52:21.628Z,16.70
2019-04-27T07:54:53.368Z,16.27
2019-04-27T07:57:25.106Z,15.47
2019-04-27T07:59:59.631Z,17.23
2019-04-27T08:02:31.464Z,13.13
2019-04-27T08:05:03.683Z,21.43
2019-04-27T08:07:35.214Z,13.43
2019-04-27T08:10:09.509Z,15.67
2019-04-27T08:12:40.924Z,19.17
2019-04-27T08:15:12.673Z,16.30
2019-04-27T08:17:44.415Z,23.77
2019-04-27T08:20:16.544Z,21.23
2019-04-27T08:22:49.673Z,22.67
2019-04-27T08:25:23.202Z,23.43
2019-04-27T08:27:57.810Z,26.13
2019-04-27T08:30:31.026Z,57.77
2019-04-27T08:33:04.311Z,11.93
2019-04-27T08:35:36.047Z,17.43
2019-04-27T08:38:09.039Z,14.20
2019-04-27T08:40:41.307Z,17.10
2019-04-27T08:43:13.055Z,16.70
2019-04-27T08:45:44.899Z,15.80
2019-04-27T08:48:33.367Z,15.80
2019-04-27T08:50:51.708Z,16.60
2019-04-27T08:53:23.565Z,15.37
2019-04-27T08:55:55.311Z,20.30
2019-04-27T08:58:28.667Z,18.90
2019-04-27T09:01:00.289Z,14.67
2019-04-27T09:03:32.046Z,15.20
2019-04-27T09:06:12.688Z,17.67
2019-04-27T09:08:49.607Z,18.97
2019-04-27T09:11:24.468Z,18.27
2019-04-27T09:14:00.071Z,15.47
2019-04-27T09:16:57.233Z,12.37
2019-04-27T09:19:37.169Z,28.63
2019-04-27T09:22:15.669Z,18.10
2019-04-27T09:24:43.592Z,13.57
2019-04-27T09:27:17.391Z,15.50
2019-04-27T09:29:49.965Z,21.30
2019-04-27T09:32:22.129Z,15.87
2019-04-27T09:34:53.671Z,16.73
2019-04-27T09:37:28.480Z,16.63
2019-04-27T09:40:00.322Z,17.03
2019-04-27T09:42:33.231Z,19.97
2019-04-27T09:45:18.903Z,14.57
2019-04-27T09:47:56.287Z,17.17
2019-04-27T09:50:31.368Z,22.77
2019-04-27T09:53:03.418Z,19.10
2019-04-27T09:55:36.887Z,21.43
2019-04-27T09:58:08.822Z,17.43
2019-04-27T10:00:41.100Z,20.70
2019-04-27T10:03:14.372Z,20.70
2019-04-27T10:05:47.740Z,27.33
2019-04-27T10:08:19.463Z,20.33
2019-04-27T10:10:51.903Z,21.67
2019-04-27T10:13:29.909Z,24.57
2019-04-27T10:16:09.089Z,17.60
2019-04-27T10:18:43.516Z,20.70
2019-04-27T10:21:16.297Z,21.03
2019-04-27T10:23:48.234Z,28.40
2019-04-27T10:26:21.760Z,23.47
2019-04-27T10:28:53.623Z,21.60
2019-04-27T10:31:25.307Z,21.43
2019-04-27T10:33:57.015Z,15.93
2019-04-27T10:36:40.831Z,22.43
2019-04-27T10:39:13.828Z,17.07
2019-04-27T10:41:49.345Z,17.00
2019-04-27T10:44:20.904Z,15.00
2019-04-27T10:46:54.645Z,24.77
2019-04-27T10:49:31.580Z,14.40
2019-04-27T10:52:03.553Z,14.37
2019-04-27T10:54:36.235Z,15.60
2019-04-27T10:57:09.940Z,11.60
2019-04-27T10:59:46.160Z,13.60
2019-04-27T11:02:18.792Z,23.23
2019-04-27T11:05:00.657Z,12.97
2019-04-27T11:07:34.087Z,16.83
2019-04-27T11:10:08.147Z,10.90
2019-04-27T11:12:46.970Z,13.77
2019-04-27T11:15:21.016Z,9.47
2019-04-27T11:17:53.544Z,11.47
2019-04-27T11:20:27.508Z,19.10
2019-04-27T11:23:07.228Z,25.07
2019-04-27T11:25:32.982Z,21.10
2019-04-27T11:28:05.800Z,14.40
2019-04-27T11:30:39.144Z,11.67
2019-04-27T11:33:10.977Z,9.73
2019-04-27T11:35:50.395Z,14.60
2019-04-27T11:38:24.465Z,12.73
2019-04-27T11:41:02.470Z,12.53
2019-04-27T11:43:36.602Z,11.67
2019-04-27T11:46:09.760Z,13.70
2019-04-27T11:48:41.756Z,10.73
2019-04-27T11:51:13.587Z,10.90
2019-04-27T11:53:46.823Z,17.37
2019-04-27T11:56:18.690Z,10.47
2019-04-27T11:58:50.549Z,9.57
2019-04-27T12:01:28.859Z,9.77
2019-04-27T12:04:05.865Z,8.53
2019-04-27T12:06:37.746Z,11.47
2019-04-27T12:09:10.163Z,14.27
2019-04-27T12:11:43.442Z,8.40
2019-04-27T12:14:16.651Z,16.17
2019-04-27T12:16:57.069Z,11.60
2019-04-27T12:19:29.792Z,146.80
2019-04-27T12:22:01.483Z,33.63
2019-04-27T12:24:33.391Z,14.80
2019-04-27T12:27:20.001Z,13.90
2019-04-27T12:30:06.271Z,8.90
2019-04-27T12:32:39.511Z,11.53
2019-04-27T12:35:11.600Z,7.77
2019-04-27T12:37:43.344Z,12.50
2019-04-27T12:40:16.717Z,7.37
2019-04-27T12:42:48.743Z,22.77
2019-04-27T12:45:20.547Z,8.73
2019-04-27T12:47:52.375Z,17.93
2019-04-27T12:50:26.080Z,29.27
2019-04-27T12:53:07.319Z,11.13
2019-04-27T12:55:38.949Z,13.10
2019-04-27T12:58:21.926Z,9.30
2019-04-27T13:00:58.338Z,13.30
2019-04-27T13:03:31.146Z,7.63
2019-04-27T13:06:02.855Z,23.80
2019-04-27T13:08:35.728Z,11.33
2019-04-27T13:11:10.935Z,19.80
2019-04-27T13:13:43.923Z,10.47
2019-04-27T13:19:33.097Z,21.63
2019-04-27T13:22:06.171Z,11.17
2019-04-27T13:24:39.466Z,20.73
2019-04-27T13:27:13.113Z,16.20
2019-04-27T13:29:47.745Z,6.90
2019-04-27T13:32:19.552Z,6.30
2019-04-27T13:34:51.942Z,4.17
2019-04-27T13:37:46.735Z,10.07
2019-04-27T13:40:20.842Z,104.73
2019-04-27T13:42:58.449Z,40.13
2019-04-27T13:45:41.481Z,50.47
2019-04-27T13:48:17.064Z,13.47
2019-04-27T13:50:51.029Z,12.73
2019-04-27T13:53:22.864Z,8.93
2019-04-27T13:55:56.629Z,8.27
2019-04-27T13:58:28.254Z,7.67
2019-04-27T14:00:59.789Z,6.33
2019-04-27T14:03:31.638Z,7.00
2019-04-27T14:06:03.371Z,9.27
2019-04-27T14:08:35.117Z,7.60
2019-04-27T14:11:06.857Z,6.97
2019-04-27T14:13:39.167Z,6.93
2019-04-27T14:16:11.302Z,16.90
2019-04-27T14:18:43.061Z,14.37
2019-04-27T14:21:14.794Z,12.03
2019-04-27T14:23:48.416Z,15.57
2019-04-27T14:26:20.229Z,5.60
2019-04-27T14:28:59.437Z,6.73
2019-04-27T14:31:35.540Z,11.67
2019-04-27T14:34:15.303Z,5.73
2019-04-27T14:36:48.871Z,6.47
2019-04-27T14:39:28.569Z,7.50
2019-04-27T14:42:10.294Z,12.00
2019-04-27T14:44:48.940Z,5.27
2019-04-27T14:47:20.875Z,18.83
2019-04-27T14:50:05.963Z,58.30
2019-04-27T14:52:30.549Z,197.10
2019-04-27T14:55:11.635Z,10.47
2019-04-27T14:57:43.805Z,26.87
2019-04-27T15:00:19.168Z,4.60
2019-04-27T15:02:50.848Z,5.03
2019-04-27T15:05:25.405Z,13.90
2019-04-27T15:08:01.609Z,12.90
2019-04-27T15:10:32.880Z,8.00
2019-04-27T15:13:06.401Z,8.93
2019-04-27T15:15:48.008Z,10.77
2019-04-27T15:18:42.165Z,6.77
2019-04-27T15:21:25.476Z,6.43
2019-04-27T15:24:02.428Z,8.57
2019-04-27T15:26:31.725Z,4.70
2019-04-27T15:29:05.108Z,8.60
2019-04-27T15:31:39.047Z,21.10
2019-04-27T15:34:27.643Z,22.40
2019-04-27T15:37:03.308Z,4.23
2019-04-27T15:39:52.714Z,6.57
2019-04-27T15:42:48.977Z,14.57
2019-04-27T15:45:20.542Z,10.03
2019-04-27T15:47:55.662Z,13.93
2019-04-27T15:50:32.167Z,8.20
2019-04-27T15:53:12.546Z,7.07
2019-04-27T15:55:47.186Z,8.57
2019-04-27T15:58:41.448Z,9.17
2019-04-27T16:01:13.319Z,6.73
2019-04-27T16:03:48.166Z,7.67
2019-04-27T16:06:21.722Z,23.70
2019-04-27T16:08:59.037Z,18.37
2019-04-27T16:11:36.206Z,4.27
2019-04-27T16:14:10.952Z,8.57
2019-04-27T16:16:42.598Z,7.07
2019-04-27T16:19:14.333Z,10.03
2019-04-27T16:21:54.326Z,7.03
2019-04-27T16:24:28.989Z,9.03
2019-04-27T16:27:03.559Z,3.57
2019-04-27T16:29:35.199Z,9.17
2019-04-27T16:32:11.144Z,16.63
2019-04-27T16:34:41.355Z,10.00
2019-04-27T16:37:20.733Z,5.00
2019-04-27T16:39:49.593Z,4.37
2019-04-27T16:42:21.385Z,4.90
2019-04-27T16:44:53.328Z,20.67
2019-04-27T16:47:25.177Z,4.70
2019-04-27T16:49:58.637Z,14.97
2019-04-27T16:52:34.372Z,25.40
2019-04-27T16:55:12.619Z,14.63
2019-04-27T16:57:47.353Z,27.23
2019-04-27T17:00:30.214Z,45.30
2019-04-27T17:03:01.374Z,53.40
2019-04-27T17:05:34.828Z,141.13
2019-04-27T17:08:14.245Z,45.17
2019-04-27T17:10:40.617Z,66.30
2019-04-27T17:13:19.496Z,25.83
2019-04-27T17:16:11.072Z,24.90
2019-04-27T17:19:06.230Z,15.60
2019-04-27T17:21:41.258Z,16.93
2019-04-27T17:24:17.934Z,23.40
2019-04-27T17:26:54.393Z,16.90
2019-04-27T17:29:32.617Z,16.60
2019-04-27T17:32:06.743Z,18.27
2019-04-27T17:34:42.233Z,18.23
2019-04-27T17:37:20.564Z,15.77
2019-04-27T17:39:53.570Z,21.37
2019-04-27T17:42:27.499Z,20.63
2019-04-27T17:45:00.562Z,13.20
2019-04-27T17:47:33.037Z,22.93
2019-04-27T17:50:05.677Z,26.53
2019-04-27T17:52:43.563Z,18.77
2019-04-27T17:55:17.860Z,19.30
2019-04-27T17:57:50.493Z,18.67
2019-04-27T18:00:24.060Z,22.20
2019-04-27T18:02:58.059Z,17.30
2019-04-27T18:05:39.019Z,23.90
2019-04-27T18:08:18.354Z,53.43
2019-04-27T18:10:57.540Z,33.17
2019-04-27T18:13:30.956Z,29.30
2019-04-27T18:16:08.988Z,23.83
2019-04-27T18:19:05.084Z,23.60
2019-04-27T18:21:38.640Z,23.43
2019-04-27T18:24:18.543Z,21.33
2019-04-27T18:27:08.999Z,26.33
2019-04-27T18:29:42.111Z,30.10
2019-04-27T18:32:17.949Z,30.73
2019-04-27T18:34:55.537Z,25.20
2019-04-27T18:37:28.284Z,29.80
2019-04-27T18:40:00.011Z,51.57
2019-04-27T18:42:31.768Z,33.10
2019-04-27T18:45:08.128Z,14.13
2019-04-27T18:47:41.492Z,14.50
2019-04-27T18:50:24.268Z,180.23
2019-04-27T18:52:58.136Z,112.00
2019-04-27T18:55:30.563Z,60.27
2019-04-27T18:58:02.475Z,76.17
2019-04-27T19:00:35.455Z,85.87
2019-04-27T19:03:09.323Z,35.60
2019-04-27T19:05:43.583Z,26.07
2019-04-27T19:08:15.292Z,18.43
2019-04-27T19:10:47.297Z,27.20
2019-04-27T19:13:19.308Z,100.67
2019-04-27T19:15:54.025Z,33.67
2019-04-27T19:18:25.857Z,505.67
2019-04-27T19:20:58.450Z,542.80
2019-04-27T19:23:31.199Z,235.77
2019-04-27T19:26:12.107Z,273.43
2019-04-27T19:29:03.078Z,285.37
2019-04-27T19:32:00.158Z,209.60
2019-04-27T19:34:31.794Z,175.97
2019-04-27T19:37:08.296Z,139.47
2019-04-27T19:39:39.829Z,93.30
2019-04-27T19:42:23.922Z,334.37
2019-04-27T19:44:59.048Z,100.13
2019-04-27T19:47:38.461Z,341.67
2019-04-27T19:50:13.814Z,221.53
2019-04-27T19:52:58.623Z,147.87
2019-04-27T19:55:33.811Z,103.73
2019-04-27T19:58:13.932Z,111.30
2019-04-27T20:00:51.950Z,95.83
2019-04-27T20:03:39.834Z,38.30
2019-04-27T20:06:11.509Z,57.73
2019-04-27T20:08:54.186Z,54.83
2019-04-27T20:11:32.932Z,62.97
2019-04-27T20:14:14.870Z,93.93
2019-04-27T20:16:51.939Z,85.60
2019-04-27T20:19:32.038Z,110.03
2019-04-27T20:22:08.266Z,87.47
2019-04-27T20:24:44.614Z,58.57
2019-04-27T20:27:18.096Z,41.00
2019-04-27T20:29:58.480Z,50.87
2019-04-27T20:32:40.671Z,53.83
2019-04-27T20:35:12.962Z,45.70
2019-04-27T20:37:45.988Z,49.37
2019-04-27T20:40:22.185Z,58.77
2019-04-27T20:42:59.470Z,59.17
2019-04-27T20:45:32.744Z,58.80
2019-04-27T20:48:06.244Z,60.47
2019-04-27T20:50:38.003Z,72.20
2019-04-27T20:53:13.731Z,62.37
2019-04-27T20:55:48.453Z,66.17
2019-04-27T21:01:13.039Z,72.90
2019-04-27T21:03:57.347Z,94.20
2019-04-27T21:06:37.723Z,103.67
2019-04-27T21:09:21.304Z,95.63
2019-04-27T21:12:00.403Z,109.97
2019-04-27T21:14:35.259Z,87.33
2019-04-27T21:17:14.730Z,62.13
2019-04-27T21:19:48.609Z,55.87
2019-04-27T21:22:31.469Z,52.43
2019-04-27T21:25:08.018Z,55.50
2019-04-27T21:27:43.801Z,41.03
2019-04-27T21:30:18.933Z,46.40
2019-04-27T21:32:54.361Z,50.97
2019-04-27T21:35:29.229Z,48.10
2019-04-27T21:38:02.218Z,55.03
2019-04-27T21:40:36.945Z,48.00
2019-04-27T21:43:11.330Z,49.37
2019-04-27T21:45:47.788Z,44.37
2019-04-27T21:48:24.351Z,40.73
2019-04-27T21:50:58.683Z,47.67
2019-04-27T21:53:35.814Z,42.37
2019-04-27T21:56:11.834Z,39.23
2019-04-27T21:58:51.138Z,37.07
2019-04-27T22:01:31.671Z,47.93
2019-04-27T22:04:15.777Z,99.80
2019-04-27T22:06:51.106Z,82.90
2019-04-27T22:09:23.688Z,60.77
2019-04-27T22:12:02.468Z,57.27
2019-04-27T22:14:46.562Z,40.13
2019-04-27T22:17:25.257Z,57.20
2019-04-27T22:19:58.266Z,56.63
2019-04-27T22:22:31.765Z,72.30
2019-04-27T22:25:07.579Z,71.30
2019-04-27T22:27:39.119Z,74.07
2019-04-27T22:30:11.226Z,74.27
2019-04-27T22:32:42.950Z,74.40
2019-04-27T22:35:15.351Z,56.73
2019-04-27T22:37:47.089Z,53.30
2019-04-27T22:40:21.480Z,54.57
2019-04-27T22:43:11.851Z,50.70
2019-04-27T22:45:45.196Z,67.03
2019-04-27T22:48:16.977Z,62.60
2019-04-27T22:50:48.613Z,61.60
2019-04-27T22:53:21.194Z,56.97
2019-04-27T22:56:11.442Z,64.87
2019-04-27T22:58:57.485Z,55.93
2019-04-27T23:01:27.746Z,54.97
2019-04-27T23:04:07.122Z,54.23
2019-04-27T23:06:38.716Z,47.17
2019-04-27T23:09:11.774Z,48.87
2019-04-27T23:11:45.616Z,40.30
2019-04-27T23:14:17.492Z,46.60
2019-04-27T23:16:50.867Z,49.47
2019-04-27T23:19:24.055Z,45.80
2019-04-27T23:21:55.792Z,46.10
2019-04-27T23:24:27.645Z,44.50
2019-04-27T23:27:03.408Z,45.77
2019-04-27T23:29:33.593Z,42.23
2019-04-27T23:32:08.503Z,44.10
2019-04-27T23:34:41.495Z,39.00
2019-04-27T23:37:13.470Z,42.33
2019-04-27T23:40:03.821Z,40.70
2019-04-27T23:42:35.420Z,49.87
2019-04-27T23:45:12.112Z,49.40
2019-04-27T23:47:44.472Z,42.97
2019-04-27T23:50:19.237Z,42.50
2019-04-27T23:52:56.935Z,45.57
2019-04-27T23:55:34.363Z,58.57
2019-04-27T23:58:06.371Z,54.17
